sensor_id;sensor_type;location;lat;lon;timestamp;P1;durP1;ratioP1;P2;durP2;ratioP2
24090;SDS011;12272;52.426;17.100;2023-12-04T00:03:16;16.60;;;9.87;;
24090;SDS011;12272;52.426;17.100;2023-12-04T00:08:18;11.80;;;7.83;;
24090;SDS011;12272;52.426;17.100;2023-12-04T00:13:21;20.40;;;12.87;;
24090;SDS011;12272;52.426;17.100;2023-12-04T00:18:23;6.97;;;4.10;;
24090;SDS011;12272;52.426;17.100;2023-12-04T00:23:26;5.47;;;3.97;;
24090;SDS011;12272;52.426;17.100;2023-12-04T00:28:28;15.97;;;11.70;;
24090;SDS011;12272;52.426;17.100;2023-12-04T00:33:31;10.50;;;5.43;;
24090;SDS011;12272;52.426;17.100;2023-12-04T00:38:34;17.63;;;11.47;;
24090;SDS011;12272;52.426;17.100;2023-12-04T00:43:36;13.40;;;8.63;;
24090;SDS011;12272;52.426;17.100;2023-12-04T00:48:39;21.60;;;13.00;;
24090;SDS011;12272;52.426;17.100;2023-12-04T00:53:42;21.43;;;14.73;;
24090;SDS011;12272;52.426;17.100;2023-12-04T00:58:44;17.00;;;11.70;;
24090;SDS011;12272;52.426;17.100;2023-12-04T01:03:47;17.00;;;8.47;;
24090;SDS011;12272;52.426;17.100;2023-12-04T01:08:50;15.57;;;9.53;;
24090;SDS011;12272;52.426;17.100;2023-12-04T01:13:52;19.73;;;11.87;;
24090;SDS011;12272;52.426;17.100;2023-12-04T01:18:55;10.83;;;6.80;;
24090;SDS011;12272;52.426;17.100;2023-12-04T01:23:58;16.20;;;11.10;;
24090;SDS011;12272;52.426;17.100;2023-12-04T01:29:00;17.00;;;10.67;;
24090;SDS011;12272;52.426;17.100;2023-12-04T01:34:03;13.90;;;8.83;;
24090;SDS011;12272;52.426;17.100;2023-12-04T01:39:05;24.07;;;15.30;;
24090;SDS011;12272;52.426;17.100;2023-12-04T01:44:07;15.63;;;9.53;;
24090;SDS011;12272;52.426;17.100;2023-12-04T01:49:10;9.10;;;6.03;;
24090;SDS011;12272;52.426;17.100;2023-12-04T01:54:13;17.83;;;11.93;;
24090;SDS011;12272;52.426;17.100;2023-12-04T01:59:15;8.27;;;6.10;;
24090;SDS011;12272;52.426;17.100;2023-12-04T02:04:18;13.10;;;7.37;;
24090;SDS011;12272;52.426;17.100;2023-12-04T02:09:21;12.37;;;8.50;;
24090;SDS011;12272;52.426;17.100;2023-12-04T02:14:24;19.57;;;12.60;;
24090;SDS011;12272;52.426;17.100;2023-12-04T02:19:27;17.20;;;11.17;;
24090;SDS011;12272;52.426;17.100;2023-12-04T02:24:29;17.60;;;11.60;;
24090;SDS011;12272;52.426;17.100;2023-12-04T02:29:39;10.30;;;7.57;;
24090;SDS011;12272;52.426;17.100;2023-12-04T02:34:49;20.60;;;13.53;;
24090;SDS011;12272;52.426;17.100;2023-12-04T02:39:52;13.47;;;8.63;;
24090;SDS011;12272;52.426;17.100;2023-12-04T02:44:57;19.47;;;13.07;;
24090;SDS011;12272;52.426;17.100;2023-12-04T02:49:59;15.43;;;10.63;;
24090;SDS011;12272;52.426;17.100;2023-12-04T02:55:02;15.80;;;11.30;;
24090;SDS011;12272;52.426;17.100;2023-12-04T03:00:05;22.63;;;14.40;;
24090;SDS011;12272;52.426;17.100;2023-12-04T03:05:08;20.37;;;13.97;;
24090;SDS011;12272;52.426;17.100;2023-12-04T03:10:11;20.73;;;12.90;;
24090;SDS011;12272;52.426;17.100;2023-12-04T03:15:13;17.17;;;11.13;;
24090;SDS011;12272;52.426;17.100;2023-12-04T03:20:16;21.20;;;14.87;;
24090;SDS011;12272;52.426;17.100;2023-12-04T03:25:18;19.77;;;13.47;;
24090;SDS011;12272;52.426;17.100;2023-12-04T03:30:21;17.07;;;10.87;;
24090;SDS011;12272;52.426;17.100;2023-12-04T03:35:23;15.23;;;9.63;;
24090;SDS011;12272;52.426;17.100;2023-12-04T03:40:26;24.97;;;16.00;;
24090;SDS011;12272;52.426;17.100;2023-12-04T03:45:29;21.93;;;14.90;;
24090;SDS011;12272;52.426;17.100;2023-12-04T03:50:32;32.13;;;19.27;;
24090;SDS011;12272;52.426;17.100;2023-12-04T03:55:35;23.80;;;15.40;;
24090;SDS011;12272;52.426;17.100;2023-12-04T04:00:37;27.40;;;18.30;;
24090;SDS011;12272;52.426;17.100;2023-12-04T04:05:43;28.77;;;16.10;;
24090;SDS011;12272;52.426;17.100;2023-12-04T04:10:46;37.83;;;23.13;;
24090;SDS011;12272;52.426;17.100;2023-12-04T04:15:48;41.07;;;22.90;;
24090;SDS011;12272;52.426;17.100;2023-12-04T04:20:51;45.30;;;23.93;;
24090;SDS011;12272;52.426;17.100;2023-12-04T04:25:53;38.57;;;22.10;;
24090;SDS011;12272;52.426;17.100;2023-12-04T04:30:56;40.57;;;21.17;;
24090;SDS011;12272;52.426;17.100;2023-12-04T04:35:58;39.30;;;21.03;;
24090;SDS011;12272;52.426;17.100;2023-12-04T04:41:01;38.17;;;21.17;;
24090;SDS011;12272;52.426;17.100;2023-12-04T04:46:04;42.20;;;23.93;;
24090;SDS011;12272;52.426;17.100;2023-12-04T04:51:06;39.93;;;20.60;;
24090;SDS011;12272;52.426;17.100;2023-12-04T04:56:09;41.50;;;23.37;;
24090;SDS011;12272;52.426;17.100;2023-12-04T05:01:12;63.57;;;30.93;;
24090;SDS011;12272;52.426;17.100;2023-12-04T05:06:16;53.40;;;31.53;;
24090;SDS011;12272;52.426;17.100;2023-12-04T05:11:19;53.43;;;25.53;;
24090;SDS011;12272;52.426;17.100;2023-12-04T05:16:21;47.87;;;22.73;;
24090;SDS011;12272;52.426;17.100;2023-12-04T05:21:23;35.40;;;18.40;;
24090;SDS011;12272;52.426;17.100;2023-12-04T05:26:26;41.80;;;23.07;;
24090;SDS011;12272;52.426;17.100;2023-12-04T05:31:28;53.47;;;28.93;;
24090;SDS011;12272;52.426;17.100;2023-12-04T05:36:32;48.30;;;24.60;;
24090;SDS011;12272;52.426;17.100;2023-12-04T05:41:35;48.17;;;26.90;;
24090;SDS011;12272;52.426;17.100;2023-12-04T05:46:37;47.67;;;28.03;;
24090;SDS011;12272;52.426;17.100;2023-12-04T05:51:39;50.30;;;27.47;;
24090;SDS011;12272;52.426;17.100;2023-12-04T05:56:42;42.70;;;23.40;;
24090;SDS011;12272;52.426;17.100;2023-12-04T06:01:44;49.87;;;25.03;;
24090;SDS011;12272;52.426;17.100;2023-12-04T06:06:47;58.37;;;29.13;;
24090;SDS011;12272;52.426;17.100;2023-12-04T06:11:50;53.40;;;28.63;;
24090;SDS011;12272;52.426;17.100;2023-12-04T06:16:52;56.87;;;27.70;;
24090;SDS011;12272;52.426;17.100;2023-12-04T06:21:55;48.83;;;25.07;;
24090;SDS011;12272;52.426;17.100;2023-12-04T06:26:58;52.57;;;25.57;;
24090;SDS011;12272;52.426;17.100;2023-12-04T06:32:01;62.83;;;33.93;;
24090;SDS011;12272;52.426;17.100;2023-12-04T06:37:03;66.70;;;36.13;;
24090;SDS011;12272;52.426;17.100;2023-12-04T06:42:13;49.47;;;26.30;;
24090;SDS011;12272;52.426;17.100;2023-12-04T06:47:17;48.77;;;27.87;;
24090;SDS011;12272;52.426;17.100;2023-12-04T06:52:24;49.47;;;26.87;;
24090;SDS011;12272;52.426;17.100;2023-12-04T06:57:26;58.57;;;31.73;;
24090;SDS011;12272;52.426;17.100;2023-12-04T07:02:29;59.87;;;31.97;;
24090;SDS011;12272;52.426;17.100;2023-12-04T07:07:31;57.07;;;29.93;;
24090;SDS011;12272;52.426;17.100;2023-12-04T07:12:34;52.97;;;28.03;;
24090;SDS011;12272;52.426;17.100;2023-12-04T07:17:37;46.33;;;28.27;;
24090;SDS011;12272;52.426;17.100;2023-12-04T07:22:41;59.40;;;31.27;;
24090;SDS011;12272;52.426;17.100;2023-12-04T07:27:43;66.73;;;36.30;;
24090;SDS011;12272;52.426;17.100;2023-12-04T07:32:46;46.73;;;27.40;;
24090;SDS011;12272;52.426;17.100;2023-12-04T07:37:48;51.90;;;28.60;;
24090;SDS011;12272;52.426;17.100;2023-12-04T07:42:51;51.73;;;29.57;;
24090;SDS011;12272;52.426;17.100;2023-12-04T07:47:53;54.90;;;30.37;;
24090;SDS011;12272;52.426;17.100;2023-12-04T07:52:56;62.13;;;31.00;;
24090;SDS011;12272;52.426;17.100;2023-12-04T07:57:58;57.60;;;30.50;;
24090;SDS011;12272;52.426;17.100;2023-12-04T08:03:01;59.97;;;33.03;;
24090;SDS011;12272;52.426;17.100;2023-12-04T08:08:04;58.70;;;30.40;;
24090;SDS011;12272;52.426;17.100;2023-12-04T08:13:07;58.30;;;31.07;;
24090;SDS011;12272;52.426;17.100;2023-12-04T08:18:09;46.27;;;26.23;;
24090;SDS011;12272;52.426;17.100;2023-12-04T08:23:12;58.60;;;31.53;;
24090;SDS011;12272;52.426;17.100;2023-12-04T08:28:15;46.57;;;25.83;;
24090;SDS011;12272;52.426;17.100;2023-12-04T08:33:17;50.43;;;30.30;;
24090;SDS011;12272;52.426;17.100;2023-12-04T08:38:22;45.40;;;26.27;;
24090;SDS011;12272;52.426;17.100;2023-12-04T08:43:25;50.63;;;27.93;;
24090;SDS011;12272;52.426;17.100;2023-12-04T08:48:27;49.70;;;30.07;;
24090;SDS011;12272;52.426;17.100;2023-12-04T08:53:30;55.40;;;32.47;;
24090;SDS011;12272;52.426;17.100;2023-12-04T08:58:32;62.13;;;32.97;;
24090;SDS011;12272;52.426;17.100;2023-12-04T09:03:35;57.13;;;33.60;;
24090;SDS011;12272;52.426;17.100;2023-12-04T09:08:38;47.80;;;28.13;;
24090;SDS011;12272;52.426;17.100;2023-12-04T09:13:49;41.10;;;23.93;;
24090;SDS011;12272;52.426;17.100;2023-12-04T09:18:52;45.20;;;30.33;;
24090;SDS011;12272;52.426;17.100;2023-12-04T09:23:55;46.90;;;29.27;;
24090;SDS011;12272;52.426;17.100;2023-12-04T09:28:58;50.93;;;27.27;;
24090;SDS011;12272;52.426;17.100;2023-12-04T09:34:01;50.53;;;28.63;;
24090;SDS011;12272;52.426;17.100;2023-12-04T09:39:03;51.10;;;28.40;;
24090;SDS011;12272;52.426;17.100;2023-12-04T09:44:06;49.17;;;26.83;;
24090;SDS011;12272;52.426;17.100;2023-12-04T09:49:09;52.50;;;26.67;;
24090;SDS011;12272;52.426;17.100;2023-12-04T09:54:13;44.37;;;25.90;;
24090;SDS011;12272;52.426;17.100;2023-12-04T09:59:19;43.77;;;27.03;;
24090;SDS011;12272;52.426;17.100;2023-12-04T10:04:27;38.10;;;21.33;;
24090;SDS011;12272;52.426;17.100;2023-12-04T10:09:30;47.30;;;27.00;;
24090;SDS011;12272;52.426;17.100;2023-12-04T10:14:32;50.00;;;28.70;;
24090;SDS011;12272;52.426;17.100;2023-12-04T10:19:35;47.43;;;26.93;;
24090;SDS011;12272;52.426;17.100;2023-12-04T10:24:38;41.23;;;23.60;;
24090;SDS011;12272;52.426;17.100;2023-12-04T10:29:45;44.27;;;23.60;;
24090;SDS011;12272;52.426;17.100;2023-12-04T10:34:49;38.83;;;21.33;;
24090;SDS011;12272;52.426;17.100;2023-12-04T10:39:52;36.97;;;22.53;;
24090;SDS011;12272;52.426;17.100;2023-12-04T10:44:56;38.57;;;23.07;;
24090;SDS011;12272;52.426;17.100;2023-12-04T10:49:59;37.23;;;22.87;;
24090;SDS011;12272;52.426;17.100;2023-12-04T10:55:03;30.83;;;19.17;;
24090;SDS011;12272;52.426;17.100;2023-12-04T11:00:08;45.30;;;26.10;;
24090;SDS011;12272;52.426;17.100;2023-12-04T11:05:13;37.50;;;20.93;;
24090;SDS011;12272;52.426;17.100;2023-12-04T11:10:21;53.73;;;30.20;;
24090;SDS011;12272;52.426;17.100;2023-12-04T11:15:26;51.83;;;30.43;;
24090;SDS011;12272;52.426;17.100;2023-12-04T11:20:34;47.93;;;29.30;;
24090;SDS011;12272;52.426;17.100;2023-12-04T11:25:41;23.37;;;14.77;;
24090;SDS011;12272;52.426;17.100;2023-12-04T11:30:45;38.47;;;23.90;;
24090;SDS011;12272;52.426;17.100;2023-12-04T11:35:50;42.37;;;24.97;;
24090;SDS011;12272;52.426;17.100;2023-12-04T11:40:52;35.63;;;22.57;;
24090;SDS011;12272;52.426;17.100;2023-12-04T11:46:07;41.50;;;25.70;;
24090;SDS011;12272;52.426;17.100;2023-12-04T11:51:10;43.40;;;26.53;;
24090;SDS011;12272;52.426;17.100;2023-12-04T11:56:36;36.93;;;23.93;;
24090;SDS011;12272;52.426;17.100;2023-12-04T12:01:38;43.80;;;27.97;;
24090;SDS011;12272;52.426;17.100;2023-12-04T12:06:44;36.77;;;20.83;;
24090;SDS011;12272;52.426;17.100;2023-12-04T12:11:48;25.97;;;14.07;;
24090;SDS011;12272;52.426;17.100;2023-12-04T12:16:51;50.57;;;29.67;;
24090;SDS011;12272;52.426;17.100;2023-12-04T12:21:53;40.20;;;24.80;;
24090;SDS011;12272;52.426;17.100;2023-12-04T12:26:56;43.50;;;28.10;;
24090;SDS011;12272;52.426;17.100;2023-12-04T12:31:58;38.87;;;23.93;;
24090;SDS011;12272;52.426;17.100;2023-12-04T12:37:02;29.67;;;19.00;;
24090;SDS011;12272;52.426;17.100;2023-12-04T12:42:06;42.83;;;28.63;;
24090;SDS011;12272;52.426;17.100;2023-12-04T12:47:09;40.63;;;24.83;;
24090;SDS011;12272;52.426;17.100;2023-12-04T12:52:12;50.63;;;31.10;;
24090;SDS011;12272;52.426;17.100;2023-12-04T12:57:15;40.53;;;24.73;;
24090;SDS011;12272;52.426;17.100;2023-12-04T13:02:17;52.43;;;31.90;;
24090;SDS011;12272;52.426;17.100;2023-12-04T13:07:22;49.77;;;30.70;;
24090;SDS011;12272;52.426;17.100;2023-12-04T13:12:24;50.57;;;31.30;;
24090;SDS011;12272;52.426;17.100;2023-12-04T13:17:27;54.27;;;30.57;;
24090;SDS011;12272;52.426;17.100;2023-12-04T13:22:30;52.43;;;31.67;;
24090;SDS011;12272;52.426;17.100;2023-12-04T13:27:36;63.57;;;34.60;;
24090;SDS011;12272;52.426;17.100;2023-12-04T13:32:40;54.57;;;32.23;;
24090;SDS011;12272;52.426;17.100;2023-12-04T13:37:43;44.63;;;27.53;;
24090;SDS011;12272;52.426;17.100;2023-12-04T13:42:45;52.80;;;31.63;;
24090;SDS011;12272;52.426;17.100;2023-12-04T13:48:07;41.40;;;24.90;;
24090;SDS011;12272;52.426;17.100;2023-12-04T13:53:10;47.77;;;30.70;;
24090;SDS011;12272;52.426;17.100;2023-12-04T13:58:15;46.93;;;28.27;;
24090;SDS011;12272;52.426;17.100;2023-12-04T14:03:36;48.17;;;29.30;;
24090;SDS011;12272;52.426;17.100;2023-12-04T14:08:39;33.13;;;19.57;;
24090;SDS011;12272;52.426;17.100;2023-12-04T14:13:42;50.00;;;30.73;;
24090;SDS011;12272;52.426;17.100;2023-12-04T14:18:44;46.73;;;26.07;;
24090;SDS011;12272;52.426;17.100;2023-12-04T14:23:47;52.23;;;31.37;;
24090;SDS011;12272;52.426;17.100;2023-12-04T14:28:50;47.47;;;29.90;;
24090;SDS011;12272;52.426;17.100;2023-12-04T14:33:53;55.67;;;31.93;;
24090;SDS011;12272;52.426;17.100;2023-12-04T14:38:56;56.00;;;32.47;;
24090;SDS011;12272;52.426;17.100;2023-12-04T14:44:00;52.57;;;29.70;;
24090;SDS011;12272;52.426;17.100;2023-12-04T14:49:03;51.33;;;31.07;;
24090;SDS011;12272;52.426;17.100;2023-12-04T14:54:06;55.30;;;33.50;;
24090;SDS011;12272;52.426;17.100;2023-12-04T14:59:38;54.03;;;30.27;;
24090;SDS011;12272;52.426;17.100;2023-12-04T15:04:59;66.17;;;39.23;;
24090;SDS011;12272;52.426;17.100;2023-12-04T15:10:31;64.67;;;38.70;;
24090;SDS011;12272;52.426;17.100;2023-12-04T15:15:52;70.00;;;40.47;;
24090;SDS011;12272;52.426;17.100;2023-12-04T15:21:00;78.23;;;51.33;;
24090;SDS011;12272;52.426;17.100;2023-12-04T15:26:04;70.97;;;38.83;;
24090;SDS011;12272;52.426;17.100;2023-12-04T15:31:07;67.27;;;39.03;;
24090;SDS011;12272;52.426;17.100;2023-12-04T15:36:09;64.13;;;34.77;;
24090;SDS011;12272;52.426;17.100;2023-12-04T15:41:13;49.30;;;28.50;;
24090;SDS011;12272;52.426;17.100;2023-12-04T15:46:17;65.80;;;37.73;;
24090;SDS011;12272;52.426;17.100;2023-12-04T15:51:20;55.87;;;28.90;;
24090;SDS011;12272;52.426;17.100;2023-12-04T15:56:23;58.97;;;33.73;;
24090;SDS011;12272;52.426;17.100;2023-12-04T16:01:25;48.20;;;29.47;;
24090;SDS011;12272;52.426;17.100;2023-12-04T16:06:28;54.07;;;29.33;;
24090;SDS011;12272;52.426;17.100;2023-12-04T16:11:33;51.27;;;29.03;;
24090;SDS011;12272;52.426;17.100;2023-12-04T16:16:36;70.10;;;40.70;;
24090;SDS011;12272;52.426;17.100;2023-12-04T16:21:39;51.23;;;28.43;;
24090;SDS011;12272;52.426;17.100;2023-12-04T16:26:42;81.03;;;46.80;;
24090;SDS011;12272;52.426;17.100;2023-12-04T16:31:44;54.07;;;34.10;;
24090;SDS011;12272;52.426;17.100;2023-12-04T16:36:47;48.57;;;30.27;;
24090;SDS011;12272;52.426;17.100;2023-12-04T16:41:50;58.70;;;32.23;;
24090;SDS011;12272;52.426;17.100;2023-12-04T16:46:52;74.70;;;49.63;;
24090;SDS011;12272;52.426;17.100;2023-12-04T16:51:57;80.30;;;45.33;;
24090;SDS011;12272;52.426;17.100;2023-12-04T16:57:00;73.83;;;40.37;;
24090;SDS011;12272;52.426;17.100;2023-12-04T17:02:02;51.67;;;27.83;;
24090;SDS011;12272;52.426;17.100;2023-12-04T17:07:05;52.57;;;27.53;;
24090;SDS011;12272;52.426;17.100;2023-12-04T17:12:08;62.13;;;36.23;;
24090;SDS011;12272;52.426;17.100;2023-12-04T17:17:10;67.80;;;40.17;;
24090;SDS011;12272;52.426;17.100;2023-12-04T17:22:13;74.80;;;42.40;;
24090;SDS011;12272;52.426;17.100;2023-12-04T17:27:15;57.80;;;28.87;;
24090;SDS011;12272;52.426;17.100;2023-12-04T17:32:18;63.07;;;34.13;;
24090;SDS011;12272;52.426;17.100;2023-12-04T17:37:20;79.93;;;40.97;;
24090;SDS011;12272;52.426;17.100;2023-12-04T17:42:24;67.00;;;35.93;;
24090;SDS011;12272;52.426;17.100;2023-12-04T17:47:27;67.73;;;36.43;;
24090;SDS011;12272;52.426;17.100;2023-12-04T17:52:30;68.47;;;35.20;;
24090;SDS011;12272;52.426;17.100;2023-12-04T17:57:33;84.03;;;43.77;;
24090;SDS011;12272;52.426;17.100;2023-12-04T18:02:38;100.57;;;59.70;;
24090;SDS011;12272;52.426;17.100;2023-12-04T18:07:41;100.83;;;58.27;;
24090;SDS011;12272;52.426;17.100;2023-12-04T18:12:44;91.93;;;57.33;;
24090;SDS011;12272;52.426;17.100;2023-12-04T18:17:48;102.07;;;61.63;;
24090;SDS011;12272;52.426;17.100;2023-12-04T18:22:52;109.70;;;61.97;;
24090;SDS011;12272;52.426;17.100;2023-12-04T18:27:57;106.20;;;59.17;;
24090;SDS011;12272;52.426;17.100;2023-12-04T18:33:01;109.67;;;58.60;;
24090;SDS011;12272;52.426;17.100;2023-12-04T18:38:11;113.77;;;61.03;;
24090;SDS011;12272;52.426;17.100;2023-12-04T18:43:16;104.73;;;59.20;;
24090;SDS011;12272;52.426;17.100;2023-12-04T18:48:19;111.27;;;65.00;;
24090;SDS011;12272;52.426;17.100;2023-12-04T18:53:25;138.23;;;67.03;;
24090;SDS011;12272;52.426;17.100;2023-12-04T18:58:28;137.57;;;74.87;;
24090;SDS011;12272;52.426;17.100;2023-12-04T19:03:31;113.43;;;66.65;;
24090;SDS011;12272;52.426;17.100;2023-12-04T19:08:33;103.93;;;62.37;;
24090;SDS011;12272;52.426;17.100;2023-12-04T19:13:36;107.17;;;63.23;;
24090;SDS011;12272;52.426;17.100;2023-12-04T19:18:38;103.43;;;62.27;;
24090;SDS011;12272;52.426;17.100;2023-12-04T19:23:41;100.33;;;59.40;;
24090;SDS011;12272;52.426;17.100;2023-12-04T19:28:44;97.90;;;52.97;;
24090;SDS011;12272;52.426;17.100;2023-12-04T19:33:47;95.80;;;52.40;;
24090;SDS011;12272;52.426;17.100;2023-12-04T19:38:49;93.30;;;53.50;;
24090;SDS011;12272;52.426;17.100;2023-12-04T19:43:52;98.28;;;62.35;;
24090;SDS011;12272;52.426;17.100;2023-12-04T19:48:55;88.43;;;52.83;;
24090;SDS011;12272;52.426;17.100;2023-12-04T19:53:58;75.57;;;46.20;;
24090;SDS011;12272;52.426;17.100;2023-12-04T19:59:01;73.30;;;45.00;;
24090;SDS011;12272;52.426;17.100;2023-12-04T20:04:04;70.27;;;41.83;;
24090;SDS011;12272;52.426;17.100;2023-12-04T20:09:06;57.80;;;34.60;;
24090;SDS011;12272;52.426;17.100;2023-12-04T20:14:09;60.70;;;37.87;;
24090;SDS011;12272;52.426;17.100;2023-12-04T20:19:12;73.80;;;41.47;;
24090;SDS011;12272;52.426;17.100;2023-12-04T20:24:14;60.27;;;37.23;;
24090;SDS011;12272;52.426;17.100;2023-12-04T20:29:17;53.87;;;35.30;;
24090;SDS011;12272;52.426;17.100;2023-12-04T20:34:19;64.10;;;39.57;;
24090;SDS011;12272;52.426;17.100;2023-12-04T20:39:22;77.30;;;41.70;;
24090;SDS011;12272;52.426;17.100;2023-12-04T20:44:25;141.33;;;94.27;;
24090;SDS011;12272;52.426;17.100;2023-12-04T20:49:28;76.33;;;45.50;;
24090;SDS011;12272;52.426;17.100;2023-12-04T20:54:31;62.10;;;38.83;;
24090;SDS011;12272;52.426;17.100;2023-12-04T20:59:33;62.87;;;39.77;;
24090;SDS011;12272;52.426;17.100;2023-12-04T21:04:36;60.37;;;38.13;;
24090;SDS011;12272;52.426;17.100;2023-12-04T21:09:38;66.53;;;42.30;;
24090;SDS011;12272;52.426;17.100;2023-12-04T21:14:43;66.43;;;41.93;;
24090;SDS011;12272;52.426;17.100;2023-12-04T21:19:45;57.60;;;32.40;;
24090;SDS011;12272;52.426;17.100;2023-12-04T21:24:48;68.30;;;41.00;;
24090;SDS011;12272;52.426;17.100;2023-12-04T21:29:52;68.10;;;43.53;;
24090;SDS011;12272;52.426;17.100;2023-12-04T21:34:55;71.60;;;42.87;;
24090;SDS011;12272;52.426;17.100;2023-12-04T21:39:58;34.27;;;20.10;;
24090;SDS011;12272;52.426;17.100;2023-12-04T21:45:00;67.83;;;42.23;;
24090;SDS011;12272;52.426;17.100;2023-12-04T21:50:03;69.07;;;41.10;;
24090;SDS011;12272;52.426;17.100;2023-12-04T21:55:06;416.63;;;85.80;;
24090;SDS011;12272;52.426;17.100;2023-12-04T22:00:10;59.03;;;28.60;;
24090;SDS011;12272;52.426;17.100;2023-12-04T22:05:14;38.93;;;20.90;;
24090;SDS011;12272;52.426;17.100;2023-12-04T22:10:17;50.83;;;28.93;;
24090;SDS011;12272;52.426;17.100;2023-12-04T22:15:19;53.87;;;26.73;;
24090;SDS011;12272;52.426;17.100;2023-12-04T22:20:22;49.03;;;28.17;;
24090;SDS011;12272;52.426;17.100;2023-12-04T22:25:24;44.30;;;22.17;;
24090;SDS011;12272;52.426;17.100;2023-12-04T22:30:27;48.10;;;27.03;;
24090;SDS011;12272;52.426;17.100;2023-12-04T22:35:30;42.60;;;23.07;;
24090;SDS011;12272;52.426;17.100;2023-12-04T22:40:32;44.43;;;25.07;;
24090;SDS011;12272;52.426;17.100;2023-12-04T22:45:35;41.30;;;23.33;;
24090;SDS011;12272;52.426;17.100;2023-12-04T22:50:37;58.73;;;31.10;;
24090;SDS011;12272;52.426;17.100;2023-12-04T22:55:39;50.50;;;25.30;;
24090;SDS011;12272;52.426;17.100;2023-12-04T23:00:42;39.57;;;21.47;;
24090;SDS011;12272;52.426;17.100;2023-12-04T23:05:45;38.97;;;19.30;;
24090;SDS011;12272;52.426;17.100;2023-12-04T23:10:47;39.63;;;20.90;;
24090;SDS011;12272;52.426;17.100;2023-12-04T23:15:50;37.77;;;20.60;;
24090;SDS011;12272;52.426;17.100;2023-12-04T23:20:52;44.23;;;25.70;;
24090;SDS011;12272;52.426;17.100;2023-12-04T23:25:56;45.90;;;23.80;;
24090;SDS011;12272;52.426;17.100;2023-12-04T23:31:02;33.30;;;18.00;;
24090;SDS011;12272;52.426;17.100;2023-12-04T23:36:05;45.63;;;21.97;;
24090;SDS011;12272;52.426;17.100;2023-12-04T23:41:08;46.67;;;25.07;;
24090;SDS011;12272;52.426;17.100;2023-12-04T23:46:10;38.13;;;21.63;;
24090;SDS011;12272;52.426;17.100;2023-12-04T23:51:13;26.17;;;14.93;;
24090;SDS011;12272;52.426;17.100;2023-12-04T23:56:15;31.13;;;18.43;;
